createdAt,value
2019-02-15T00:01:14.059Z,83.73
2019-02-15T00:02:18.450Z,84.10
2019-02-15T00:03:21.393Z,84.10
2019-02-15T00:04:24.271Z,83.94
2019-02-15T00:05:27.086Z,83.74
2019-02-15T00:06:30.015Z,83.53
2019-02-15T00:07:32.815Z,83.41
2019-02-15T00:08:35.760Z,83.42
2019-02-15T00:09:38.589Z,83.53
2019-02-15T00:10:50.259Z,83.71
2019-02-15T00:11:53.631Z,84.00
2019-02-15T00:12:57.619Z,83.75
2019-02-15T00:14:08.040Z,83.75
2019-02-15T00:15:10.994Z,83.87
2019-02-15T00:16:14.902Z,83.82
2019-02-15T00:17:26.132Z,83.61
2019-02-15T00:18:43.878Z,83.62
2019-02-15T00:19:52.185Z,83.92
2019-02-15T00:21:13.786Z,83.92
2019-02-15T00:22:16.335Z,84.43
2019-02-15T00:23:25.144Z,84.43
2019-02-15T00:24:29.084Z,83.83
2019-02-15T00:25:32.207Z,83.88
2019-02-15T00:26:37.235Z,83.88
2019-02-15T00:27:42.790Z,83.86
2019-02-15T00:28:48.092Z,84.01
2019-02-15T00:29:52.656Z,84.27
2019-02-15T00:30:55.489Z,84.27
2019-02-15T00:31:58.757Z,84.20
2019-02-15T00:33:01.610Z,84.20
2019-02-15T00:34:07.446Z,84.47
2019-02-15T00:35:10.353Z,84.21
2019-02-15T00:36:22.367Z,84.23
2019-02-15T00:37:25.180Z,83.76
2019-02-15T00:38:28.325Z,83.76
2019-02-15T00:39:31.180Z,83.95
2019-02-15T00:40:36.124Z,84.13
2019-02-15T00:41:38.955Z,83.87
2019-02-15T00:42:41.790Z,84.28
2019-02-15T00:43:44.649Z,84.11
2019-02-15T00:44:47.927Z,84.37
2019-02-15T00:45:59.663Z,84.37
2019-02-15T00:47:26.829Z,84.72
2019-02-15T00:48:29.632Z,84.47
2019-02-15T00:49:58.980Z,84.47
2019-02-15T00:51:26.914Z,84.88
2019-02-15T00:53:00.376Z,84.88
2019-02-15T00:54:20.279Z,84.49
2019-02-15T00:55:41.847Z,84.49
2019-02-15T00:57:07.048Z,84.45
2019-02-15T00:58:18.174Z,84.91
2019-02-15T00:59:37.972Z,85.07
2019-02-15T01:00:49.659Z,85.27
2019-02-15T01:02:06.086Z,84.77
2019-02-15T01:03:46.221Z,85.13
2019-02-15T01:05:06.329Z,84.75
2019-02-15T01:06:30.754Z,84.67
2019-02-15T01:07:50.657Z,84.67
2019-02-15T01:08:59.414Z,84.54
2019-02-15T01:10:23.883Z,84.21
2019-02-15T01:11:37.388Z,83.94
2019-02-15T01:12:53.238Z,83.85
2019-02-15T01:13:56.120Z,83.58
2019-02-15T01:15:01.934Z,83.65
2019-02-15T01:16:05.379Z,84.15
2019-02-15T01:17:09.060Z,83.80
2019-02-15T01:18:11.934Z,84.15
2019-02-15T01:19:14.795Z,83.41
2019-02-15T01:20:17.712Z,83.41
2019-02-15T01:21:20.527Z,83.26
2019-02-15T01:22:23.832Z,83.26
2019-02-15T01:23:26.727Z,83.31
2019-02-15T01:24:31.829Z,83.22
2019-02-15T01:25:41.594Z,82.89
2019-02-15T01:26:49.337Z,83.05
2019-02-15T01:28:14.636Z,83.45
2019-02-15T01:29:44.782Z,83.42
2019-02-15T01:31:09.594Z,83.23
2019-02-15T01:32:34.691Z,83.45
2019-02-15T01:34:11.797Z,83.45
2019-02-15T01:35:42.319Z,83.37
2019-02-15T01:36:55.188Z,84.15
2019-02-15T01:38:19.655Z,84.00
2019-02-15T01:39:41.711Z,84.11
2019-02-15T01:41:03.302Z,83.74
2019-02-15T01:42:30.807Z,83.85
2019-02-15T01:43:51.450Z,83.71
2019-02-15T01:45:01.362Z,84.18
2019-02-15T01:46:11.571Z,84.18
2019-02-15T01:47:18.258Z,83.75
2019-02-15T01:48:21.149Z,83.85
2019-02-15T01:49:23.998Z,83.50
2019-02-15T01:50:26.827Z,83.73
2019-02-15T01:51:30.214Z,83.19
2019-02-15T01:52:33.000Z,83.28
2019-02-15T01:53:36.983Z,82.83
2019-02-15T01:54:39.840Z,82.97
2019-02-15T01:55:43.097Z,83.18
2019-02-15T01:56:45.956Z,83.25
2019-02-15T01:57:49.225Z,83.07
2019-02-15T01:58:52.059Z,83.07
2019-02-15T01:59:54.885Z,82.46
2019-02-15T02:00:57.729Z,82.32
2019-02-15T02:02:00.857Z,82.14
2019-02-15T02:03:03.819Z,82.14
2019-02-15T02:04:08.636Z,82.34
2019-02-15T02:05:13.136Z,82.17
2019-02-15T02:06:15.981Z,82.26
2019-02-15T02:07:18.793Z,82.28
2019-02-15T02:08:24.385Z,82.52
2019-02-15T02:09:27.214Z,82.16
2019-02-15T02:10:30.574Z,82.24
2019-02-15T02:11:33.847Z,82.05
2019-02-15T02:12:36.747Z,82.05
2019-02-15T02:13:49.065Z,82.33
2019-02-15T02:14:44.735Z,82.34
2019-02-15T02:15:48.862Z,82.27
2019-02-15T02:16:52.090Z,82.18
2019-02-15T02:17:54.977Z,82.26
2019-02-15T02:18:57.789Z,82.22
2019-02-15T02:20:00.622Z,82.96
2019-02-15T02:21:03.421Z,82.96
2019-02-15T02:22:06.309Z,83.12
2019-02-15T02:23:10.758Z,82.97
2019-02-15T02:24:13.560Z,83.60
2019-02-15T02:25:16.441Z,83.31
2019-02-15T02:26:19.620Z,83.25
2019-02-15T02:27:22.499Z,83.29
2019-02-15T02:28:25.425Z,83.50
2019-02-15T02:29:28.774Z,83.49
2019-02-15T02:30:31.599Z,83.65
2019-02-15T02:31:34.394Z,83.83
2019-02-15T02:32:37.186Z,84.24
2019-02-15T02:33:40.497Z,84.81
2019-02-15T02:34:43.308Z,84.47
2019-02-15T02:35:46.592Z,84.47
2019-02-15T02:36:49.412Z,84.48
2019-02-15T02:37:52.248Z,84.69
2019-02-15T02:38:55.125Z,84.52
2019-02-15T02:39:57.967Z,84.52
2019-02-15T02:41:00.836Z,84.52
2019-02-15T02:42:04.026Z,84.29
2019-02-15T02:43:06.925Z,84.29
2019-02-15T02:44:09.727Z,84.40
2019-02-15T02:45:12.936Z,84.79
2019-02-15T02:46:15.824Z,85.00
2019-02-15T02:47:18.657Z,84.77
2019-02-15T02:48:21.929Z,84.79
2019-02-15T02:49:24.708Z,84.73
2019-02-15T02:50:27.618Z,84.65
2019-02-15T02:51:30.438Z,84.04
2019-02-15T02:52:33.278Z,84.81
2019-02-15T02:53:36.055Z,84.52
2019-02-15T02:54:39.343Z,84.80
2019-02-15T02:55:42.228Z,84.62
2019-02-15T02:56:45.571Z,84.99
2019-02-15T02:57:48.430Z,85.08
2019-02-15T02:58:51.226Z,85.00
2019-02-15T02:59:54.035Z,85.00
2019-02-15T03:00:57.224Z,84.53
2019-02-15T03:02:00.045Z,84.79
2019-02-15T03:03:02.875Z,84.26
2019-02-15T03:04:05.739Z,84.41
2019-02-15T03:05:08.563Z,84.69
2019-02-15T03:06:11.452Z,84.69
2019-02-15T03:07:14.636Z,84.80
2019-02-15T03:08:17.478Z,85.06
2019-02-15T03:09:20.329Z,85.06
2019-02-15T03:10:23.605Z,84.64
2019-02-15T03:11:26.443Z,85.15
2019-02-15T03:12:29.233Z,84.84
2019-02-15T03:13:32.489Z,84.86
2019-02-15T03:14:35.283Z,85.22
2019-02-15T03:15:38.198Z,85.33
2019-02-15T03:16:40.998Z,85.59
2019-02-15T03:17:43.811Z,85.67
2019-02-15T03:18:46.639Z,85.67
2019-02-15T03:19:49.961Z,85.40
2019-02-15T03:20:52.820Z,85.22
2019-02-15T03:21:55.656Z,85.28
2019-02-15T03:22:59.439Z,85.46
2019-02-15T03:24:05.069Z,85.87
2019-02-15T03:25:07.941Z,85.99
2019-02-15T03:26:10.969Z,85.89
2019-02-15T03:27:13.691Z,86.31
2019-02-15T03:28:19.366Z,85.36
2019-02-15T03:29:22.247Z,85.60
2019-02-15T03:30:25.146Z,85.52
2019-02-15T03:31:28.905Z,86.01
2019-02-15T03:32:32.825Z,86.27
2019-02-15T03:33:36.886Z,86.27
2019-02-15T03:34:40.066Z,86.14
2019-02-15T03:35:55.339Z,86.14
2019-02-15T03:37:33.546Z,86.46
2019-02-15T03:38:54.020Z,86.46
2019-02-15T03:40:05.903Z,86.43
2019-02-15T03:41:26.772Z,86.73
2019-02-15T03:42:30.220Z,86.73
2019-02-15T03:43:33.737Z,86.67
2019-02-15T03:44:37.167Z,87.10
2019-02-15T03:45:42.064Z,86.99
2019-02-15T03:46:44.874Z,86.50
2019-02-15T03:47:47.709Z,86.73
2019-02-15T03:48:50.563Z,87.07
2019-02-15T03:49:53.355Z,86.63
2019-02-15T03:50:56.179Z,86.92
2019-02-15T03:51:59.351Z,86.95
2019-02-15T03:53:02.050Z,86.75
2019-02-15T03:54:04.934Z,86.54
2019-02-15T03:55:07.755Z,86.80
2019-02-15T03:56:10.607Z,86.97
2019-02-15T03:57:13.841Z,86.97
2019-02-15T03:58:16.967Z,87.25
2019-02-15T03:59:19.907Z,87.25
2019-02-15T04:00:22.735Z,87.77
2019-02-15T04:01:27.130Z,87.59
2019-02-15T04:02:29.936Z,87.59
2019-02-15T04:03:32.756Z,87.58
2019-02-15T04:04:36.121Z,87.49
2019-02-15T04:05:38.784Z,87.67
2019-02-15T04:06:41.587Z,87.58
2019-02-15T04:07:44.585Z,87.58
2019-02-15T04:08:47.427Z,87.62
2019-02-15T04:09:50.785Z,87.88
2019-02-15T04:10:54.146Z,87.88
2019-02-15T04:11:56.989Z,87.57
2019-02-15T04:12:59.804Z,87.57
2019-02-15T04:14:02.674Z,87.30
2019-02-15T04:15:05.533Z,87.64
2019-02-15T04:16:08.352Z,87.64
2019-02-15T04:17:13.111Z,87.94
2019-02-15T04:18:17.023Z,87.29
2019-02-15T04:19:19.842Z,87.32
2019-02-15T04:20:23.186Z,87.64
2019-02-15T04:21:26.068Z,87.30
2019-02-15T04:22:28.941Z,87.59
2019-02-15T04:23:32.096Z,87.54
2019-02-15T04:24:34.905Z,87.87
2019-02-15T04:25:37.723Z,87.82
2019-02-15T04:26:40.625Z,87.67
2019-02-15T04:27:45.518Z,87.48
2019-02-15T04:28:48.385Z,87.71
2019-02-15T04:29:51.652Z,87.37
2019-02-15T04:30:57.285Z,87.37
2019-02-15T04:32:00.160Z,87.69
2019-02-15T04:33:03.785Z,87.21
2019-02-15T04:34:06.605Z,87.25
2019-02-15T04:35:09.443Z,87.25
2019-02-15T04:36:12.758Z,86.61
2019-02-15T04:37:18.114Z,87.67
2019-02-15T04:38:20.987Z,87.67
2019-02-15T04:39:23.777Z,87.70
2019-02-15T04:40:26.586Z,87.69
2019-02-15T04:41:29.394Z,87.46
2019-02-15T04:42:32.669Z,87.46
2019-02-15T04:43:36.496Z,87.18
2019-02-15T04:44:42.851Z,87.20
2019-02-15T04:45:43.765Z,87.21
2019-02-15T04:46:46.610Z,87.21
2019-02-15T04:47:49.933Z,87.52
2019-02-15T04:48:53.134Z,87.52
2019-02-15T04:49:55.932Z,87.43
2019-02-15T04:50:58.761Z,87.46
2019-02-15T04:52:01.565Z,87.30
2019-02-15T04:53:04.862Z,86.93
2019-02-15T04:54:07.728Z,87.45
2019-02-15T04:55:11.075Z,87.31
2019-02-15T04:56:13.909Z,87.40
2019-02-15T04:57:16.707Z,87.46
2019-02-15T04:58:30.683Z,87.09
2019-02-15T04:59:33.519Z,87.37
2019-02-15T05:00:36.321Z,87.37
2019-02-15T05:01:39.513Z,87.94
2019-02-15T05:02:42.362Z,87.57
2019-02-15T05:03:45.657Z,88.03
2019-02-15T05:04:48.490Z,88.03
2019-02-15T05:05:51.300Z,87.93
2019-02-15T05:06:54.209Z,87.66
2019-02-15T05:07:59.121Z,87.31
2019-02-15T05:09:06.926Z,87.33
2019-02-15T05:10:09.862Z,87.56
2019-02-15T05:11:12.541Z,87.47
2019-02-15T05:12:16.916Z,87.41
2019-02-15T05:13:19.649Z,87.17
2019-02-15T05:14:23.472Z,87.01
2019-02-15T05:15:26.876Z,87.14
2019-02-15T05:16:29.675Z,87.05
2019-02-15T05:17:32.463Z,87.55
2019-02-15T05:18:35.304Z,87.48
2019-02-15T05:19:38.165Z,87.71
2019-02-15T05:20:41.469Z,87.62
2019-02-15T05:21:44.729Z,87.74
2019-02-15T05:22:48.022Z,87.55
2019-02-15T05:23:50.843Z,87.65
2019-02-15T05:24:53.673Z,87.66
2019-02-15T05:25:56.506Z,87.87
2019-02-15T05:26:59.672Z,87.58
2019-02-15T05:28:02.678Z,87.58
2019-02-15T05:29:05.480Z,88.02
2019-02-15T05:30:10.144Z,88.47
2019-02-15T05:31:12.942Z,88.47
2019-02-15T05:32:15.798Z,87.99
2019-02-15T05:33:19.298Z,88.31
2019-02-15T05:34:22.106Z,88.31
2019-02-15T05:35:25.005Z,88.53
2019-02-15T05:36:27.827Z,88.54
2019-02-15T05:37:30.641Z,88.70
2019-02-15T05:38:33.498Z,88.80
2019-02-15T05:39:36.647Z,88.99
2019-02-15T05:40:39.513Z,88.87
2019-02-15T05:41:42.601Z,88.77
2019-02-15T05:42:45.343Z,88.77
2019-02-15T05:43:48.217Z,88.88
2019-02-15T05:44:51.114Z,89.18
2019-02-15T05:45:54.385Z,89.02
2019-02-15T05:46:57.200Z,88.46
2019-02-15T05:48:01.157Z,88.43
2019-02-15T05:49:04.037Z,89.27
2019-02-15T05:50:07.004Z,89.24
2019-02-15T05:51:10.151Z,89.24
2019-02-15T05:52:13.386Z,89.35
2019-02-15T05:53:16.249Z,88.89
2019-02-15T05:54:20.068Z,88.96
2019-02-15T05:55:23.241Z,89.01
2019-02-15T05:56:26.208Z,88.93
2019-02-15T05:57:28.935Z,88.93
2019-02-15T05:58:32.256Z,88.57
2019-02-15T05:59:35.203Z,88.62
2019-02-15T06:00:37.997Z,88.70
2019-02-15T06:01:40.825Z,88.58
2019-02-15T06:02:44.009Z,89.33
2019-02-15T06:03:47.320Z,89.64
2019-02-15T06:04:51.781Z,89.40
2019-02-15T06:05:54.668Z,89.60
2019-02-15T06:06:57.516Z,89.60
2019-02-15T06:08:01.360Z,89.18
2019-02-15T06:09:05.243Z,89.08
2019-02-15T06:10:08.138Z,89.22
2019-02-15T06:11:11.450Z,89.91
2019-02-15T06:12:14.304Z,89.63
2019-02-15T06:13:17.187Z,89.63
2019-02-15T06:14:20.036Z,90.18
2019-02-15T06:15:25.719Z,90.18
2019-02-15T06:16:29.803Z,89.91
2019-02-15T06:17:32.981Z,90.19
2019-02-15T06:18:35.872Z,90.29
2019-02-15T06:19:38.769Z,89.60
2019-02-15T06:20:41.581Z,90.11
2019-02-15T06:21:44.795Z,89.96
2019-02-15T06:22:47.636Z,90.26
2019-02-15T06:23:50.884Z,90.40
2019-02-15T06:24:53.739Z,90.00
2019-02-15T06:25:56.630Z,90.02
2019-02-15T06:27:02.408Z,90.38
2019-02-15T06:28:07.304Z,90.46
2019-02-15T06:29:10.118Z,90.65
2019-02-15T06:43:51.429Z,90.84
2019-02-15T06:45:13.411Z,90.95
2019-02-15T06:46:23.122Z,90.72
2019-02-15T06:47:25.937Z,90.89
2019-02-15T06:48:28.922Z,91.00
2019-02-15T06:49:32.318Z,91.10
2019-02-15T06:50:35.351Z,90.67
2019-02-15T06:51:38.162Z,90.68
2019-02-15T06:52:40.975Z,91.06
2019-02-15T06:53:43.874Z,90.70
2019-02-15T06:54:46.782Z,90.57
2019-02-15T06:55:49.926Z,90.56
2019-02-15T06:56:53.086Z,90.55
2019-02-15T06:57:55.974Z,90.55
2019-02-15T06:59:26.573Z,90.38
2019-02-15T07:01:06.528Z,90.55
2019-02-15T07:02:30.421Z,90.54
2019-02-15T07:03:48.467Z,90.75
2019-02-15T07:05:03.147Z,90.33
2019-02-15T07:06:11.178Z,90.21
2019-02-15T07:07:14.002Z,89.94
2019-02-15T07:08:17.297Z,89.94
2019-02-15T07:09:20.590Z,89.72
2019-02-15T07:10:23.485Z,89.37
2019-02-15T07:11:29.309Z,87.39
2019-02-15T07:12:32.181Z,87.39
2019-02-15T07:13:40.112Z,87.39
2019-02-15T07:14:43.705Z,86.16
2019-02-15T07:15:48.807Z,85.66
2019-02-15T07:16:51.406Z,84.66
2019-02-15T07:17:54.229Z,84.56
2019-02-15T07:18:57.084Z,84.56
2019-02-15T07:20:00.042Z,84.02
2019-02-15T07:21:04.815Z,83.29
2019-02-15T07:22:14.057Z,82.39
2019-02-15T07:23:16.665Z,81.63
2019-02-15T07:24:19.508Z,62.15
2019-02-15T07:25:23.545Z,100.00
2019-02-15T07:26:26.425Z,37.18
2019-02-15T07:27:29.331Z,61.67
2019-02-15T07:28:32.181Z,79.17
2019-02-15T07:29:37.307Z,78.35
2019-02-15T07:30:40.184Z,78.14
2019-02-15T07:31:44.615Z,77.60
2019-02-15T07:32:47.766Z,78.34
2019-02-15T07:33:50.917Z,78.36
2019-02-15T07:34:53.747Z,78.50
2019-02-15T07:35:59.040Z,78.70
2019-02-15T07:37:02.039Z,78.22
2019-02-15T07:38:09.000Z,78.68
2019-02-15T07:39:12.666Z,78.68
2019-02-15T07:40:16.135Z,78.28
2019-02-15T07:41:19.032Z,78.15
2019-02-15T07:42:21.888Z,78.15
2019-02-15T07:43:24.706Z,76.99
2019-02-15T07:44:28.012Z,76.32
2019-02-15T07:45:30.907Z,76.31
2019-02-15T07:46:35.303Z,75.77
2019-02-15T07:47:42.221Z,75.50
2019-02-15T07:48:46.385Z,75.59
2019-02-15T07:49:49.206Z,75.53
2019-02-15T07:50:55.316Z,75.17
2019-02-15T07:51:58.125Z,75.17
2019-02-15T07:53:04.536Z,73.74
2019-02-15T07:54:10.534Z,74.00
2019-02-15T07:55:13.380Z,73.03
2019-02-15T07:56:16.223Z,73.03
2019-02-15T07:57:19.037Z,71.95
2019-02-15T07:58:24.955Z,71.76
2019-02-15T07:59:28.205Z,71.55
2019-02-15T08:00:31.086Z,71.30
2019-02-15T08:01:43.251Z,70.85
2019-02-15T08:02:51.191Z,70.55
2019-02-15T08:04:01.084Z,69.59
2019-02-15T08:05:05.552Z,69.59
2019-02-15T08:06:15.257Z,69.39
2019-02-15T08:07:15.388Z,69.76
2019-02-15T08:08:22.858Z,68.48
2019-02-15T08:09:26.329Z,68.17
2019-02-15T08:10:29.595Z,67.44
2019-02-15T08:11:32.413Z,66.57
2019-02-15T08:12:36.769Z,66.86
2019-02-15T08:13:39.702Z,66.17
2019-02-15T08:14:42.581Z,66.28
2019-02-15T08:15:52.028Z,66.28
2019-02-15T08:16:54.953Z,65.40
2019-02-15T08:17:59.443Z,66.18
2019-02-15T08:19:02.366Z,64.87
2019-02-15T08:20:05.206Z,64.29
2019-02-15T08:21:08.115Z,64.29
2019-02-15T08:22:11.479Z,64.27
2019-02-15T08:23:14.387Z,63.59
2019-02-15T08:24:17.641Z,63.39
2019-02-15T08:25:20.601Z,63.26
2019-02-15T08:26:23.666Z,63.42
2019-02-15T08:27:26.614Z,63.42
2019-02-15T08:28:32.014Z,61.95
2019-02-15T08:29:36.814Z,61.69
2019-02-15T08:30:48.977Z,61.24
2019-02-15T08:31:54.777Z,60.80
2019-02-15T08:33:00.971Z,60.11
2019-02-15T08:34:03.830Z,59.34
2019-02-15T08:35:06.674Z,60.26
2019-02-15T08:36:24.837Z,59.71
2019-02-15T08:37:27.753Z,58.73
2019-02-15T08:38:30.647Z,59.06
2019-02-15T08:39:33.472Z,57.92
2019-02-15T08:40:37.602Z,57.61
2019-02-15T08:41:41.094Z,57.01
2019-02-15T08:42:44.313Z,57.23
2019-02-15T08:43:47.244Z,57.23
2019-02-15T08:44:57.771Z,57.27
2019-02-15T08:46:03.311Z,56.27
2019-02-15T08:47:08.245Z,56.27
2019-02-15T08:48:11.798Z,56.37
2019-02-15T08:49:16.282Z,56.50
2019-02-15T08:50:27.924Z,55.81
2019-02-15T08:51:32.818Z,56.13
2019-02-15T08:52:38.289Z,56.11
2019-02-15T08:53:41.271Z,55.37
2019-02-15T08:54:46.675Z,55.15
2019-02-15T08:55:49.806Z,55.15
2019-02-15T08:56:53.053Z,55.04
2019-02-15T08:57:58.023Z,54.37
2019-02-15T08:59:02.000Z,54.03
2019-02-15T09:00:06.804Z,53.85
2019-02-15T09:01:09.765Z,53.91
2019-02-15T09:02:21.699Z,53.78
2019-02-15T09:03:26.004Z,53.24
2019-02-15T09:04:30.895Z,52.56
2019-02-15T09:05:33.550Z,52.91
2019-02-15T09:06:36.845Z,52.32
2019-02-15T09:07:40.965Z,51.77
2019-02-15T09:08:44.094Z,51.77
2019-02-15T09:09:49.586Z,50.87
2019-02-15T09:10:54.358Z,50.87
2019-02-15T09:11:57.390Z,50.58
2019-02-15T09:13:00.315Z,50.58
2019-02-15T09:14:06.103Z,50.92
2019-02-15T09:15:09.272Z,50.92
2019-02-15T09:16:13.268Z,50.23
2019-02-15T09:17:19.073Z,49.57
2019-02-15T09:18:21.848Z,49.57
2019-02-15T09:19:24.731Z,50.39
2019-02-15T09:20:29.061Z,50.36
2019-02-15T09:21:32.180Z,50.47
2019-02-15T09:22:35.004Z,49.69
2019-02-15T09:23:40.274Z,49.69
2019-02-15T09:24:43.750Z,49.79
2019-02-15T09:25:46.627Z,49.34
2019-02-15T09:26:50.072Z,48.82
2019-02-15T09:28:12.002Z,48.82
2019-02-15T09:29:16.723Z,48.54
2019-02-15T09:30:23.513Z,47.72
2019-02-15T09:31:26.367Z,47.72
2019-02-15T09:32:29.231Z,47.64
2019-02-15T09:33:34.354Z,47.59
2019-02-15T09:34:41.317Z,47.59
2019-02-15T09:35:44.166Z,46.23
2019-02-15T09:36:48.350Z,45.90
2019-02-15T09:37:51.269Z,45.51
2019-02-15T09:38:57.652Z,45.76
2019-02-15T09:40:03.023Z,46.57
2019-02-15T09:41:05.425Z,46.57
2019-02-15T09:42:13.245Z,45.64
2019-02-15T09:43:16.408Z,44.20
2019-02-15T09:44:23.283Z,43.65
2019-02-15T09:45:26.214Z,42.61
2019-02-15T09:46:29.165Z,43.06
2019-02-15T09:47:32.005Z,44.22
2019-02-15T09:48:36.646Z,43.64
2019-02-15T09:49:42.753Z,43.71
2019-02-15T09:50:45.983Z,43.74
2019-02-15T09:51:49.131Z,43.74
2019-02-15T09:52:53.637Z,43.47
2019-02-15T09:53:56.585Z,43.03
2019-02-15T09:54:59.804Z,43.04
2019-02-15T09:56:02.683Z,40.03
2019-02-15T09:57:05.854Z,40.17
2019-02-15T09:58:10.538Z,40.84
2019-02-15T09:59:16.662Z,40.84
2019-02-15T10:00:20.451Z,40.53
2019-02-15T10:01:26.437Z,40.53
2019-02-15T10:02:32.445Z,40.44
2019-02-15T10:03:35.299Z,38.09
2019-02-15T10:04:38.907Z,37.77
2019-02-15T10:05:47.791Z,39.33
2019-02-15T10:06:50.668Z,39.96
2019-02-15T10:07:59.620Z,39.76
2019-02-15T10:09:02.550Z,39.83
2019-02-15T10:10:05.513Z,39.83
2019-02-15T10:11:08.700Z,41.28
2019-02-15T10:12:11.560Z,41.28
2019-02-15T10:13:14.411Z,38.87
2019-02-15T10:14:17.244Z,39.92
2019-02-15T10:15:20.397Z,40.62
2019-02-15T10:16:29.802Z,40.47
2019-02-15T10:17:27.823Z,40.47
2019-02-15T10:18:30.706Z,40.27
2019-02-15T10:19:33.546Z,39.41
2019-02-15T10:20:46.130Z,39.41
2019-02-15T10:21:50.279Z,39.65
2019-02-15T10:22:53.635Z,39.22
2019-02-15T10:23:56.412Z,37.92
2019-02-15T10:25:05.334Z,37.74
2019-02-15T10:26:06.544Z,38.08
2019-02-15T10:27:09.416Z,37.66
2019-02-15T10:28:12.242Z,37.66
2019-02-15T10:29:16.798Z,37.50
2019-02-15T10:30:19.695Z,37.08
2019-02-15T10:31:22.618Z,37.27
2019-02-15T10:32:25.447Z,37.27
2019-02-15T10:33:31.155Z,37.44
2019-02-15T10:34:34.748Z,36.99
2019-02-15T10:35:40.111Z,37.11
2019-02-15T10:36:43.104Z,37.11
2019-02-15T10:37:46.009Z,36.49
2019-02-15T10:38:48.943Z,35.53
2019-02-15T10:39:51.723Z,36.49
2019-02-15T10:40:54.600Z,35.92
2019-02-15T10:41:58.267Z,35.29
2019-02-15T10:43:01.242Z,35.80
2019-02-15T10:44:07.846Z,35.13
2019-02-15T10:45:11.564Z,34.10
2019-02-15T10:46:15.742Z,35.07
2019-02-15T10:47:24.687Z,34.06
2019-02-15T10:48:23.335Z,35.03
2019-02-15T10:49:26.344Z,35.03
2019-02-15T10:50:30.187Z,35.25
2019-02-15T10:51:33.809Z,35.97
2019-02-15T10:52:39.729Z,35.97
2019-02-15T10:53:49.224Z,36.25
2019-02-15T10:54:51.230Z,35.42
2019-02-15T10:55:54.627Z,35.52
2019-02-15T10:56:57.692Z,35.23
2019-02-15T10:58:00.594Z,34.87
2019-02-15T10:59:03.683Z,35.19
2019-02-15T11:00:07.067Z,34.28
2019-02-15T11:01:10.165Z,34.92
2019-02-15T11:02:14.208Z,35.00
2019-02-15T11:03:16.999Z,35.00
2019-02-15T11:04:22.626Z,35.55
2019-02-15T11:05:26.000Z,35.32
2019-02-15T11:06:29.891Z,34.29
2019-02-15T11:07:32.842Z,34.92
2019-02-15T11:08:35.886Z,34.37
2019-02-15T11:09:38.564Z,33.46
2019-02-15T11:10:41.696Z,33.56
2019-02-15T11:11:44.714Z,34.76
2019-02-15T11:12:47.550Z,35.09
2019-02-15T11:13:50.206Z,35.09
2019-02-15T11:14:53.223Z,35.36
2019-02-15T11:15:56.176Z,35.38
2019-02-15T11:16:58.990Z,35.43
2019-02-15T11:18:02.109Z,36.07
2019-02-15T11:19:05.463Z,36.07
2019-02-15T11:20:11.498Z,36.14
2019-02-15T11:21:15.462Z,36.14
2019-02-15T11:22:18.789Z,35.48
2019-02-15T11:23:23.243Z,35.89
2019-02-15T11:24:26.033Z,35.30
2019-02-15T11:25:29.067Z,35.14
2019-02-15T11:26:33.827Z,35.48
2019-02-15T11:27:39.448Z,35.48
2019-02-15T11:28:42.203Z,35.97
2019-02-15T11:29:45.210Z,36.30
2019-02-15T11:42:54.911Z,35.65
2019-02-15T11:43:58.368Z,35.65
2019-02-15T11:45:01.303Z,34.11
2019-02-15T11:46:05.720Z,34.28
2019-02-15T11:47:09.441Z,34.04
2019-02-15T11:48:12.866Z,34.61
2019-02-15T11:49:15.844Z,33.65
2019-02-15T11:50:19.642Z,34.41
2019-02-15T11:51:22.373Z,34.18
2019-02-15T11:52:25.241Z,34.40
2019-02-15T11:53:28.300Z,34.64
2019-02-15T11:54:36.957Z,34.62
2019-02-15T11:55:39.484Z,34.62
2019-02-15T11:56:42.623Z,33.42
2019-02-15T11:57:45.453Z,33.78
2019-02-15T11:58:48.110Z,34.38
2019-02-15T11:59:50.903Z,33.98
2019-02-15T12:00:54.203Z,34.12
2019-02-15T12:02:05.857Z,34.12
2019-02-15T12:03:03.948Z,33.69
2019-02-15T12:04:06.959Z,33.69
2019-02-15T12:05:11.695Z,32.73
2019-02-15T12:06:16.012Z,32.13
2019-02-15T12:07:19.973Z,31.99
2019-02-15T12:08:22.789Z,32.85
2019-02-15T12:09:25.617Z,32.85
2019-02-15T12:10:32.695Z,32.42
2019-02-15T12:11:36.834Z,31.58
2019-02-15T12:12:40.260Z,31.63
2019-02-15T12:13:46.210Z,31.55
2019-02-15T12:14:52.543Z,31.42
2019-02-15T12:15:56.730Z,31.60
2019-02-15T12:17:05.486Z,31.45
2019-02-15T12:18:04.163Z,31.84
2019-02-15T12:19:13.278Z,31.68
2019-02-15T12:20:15.930Z,31.35
2019-02-15T12:21:18.787Z,31.35
2019-02-15T12:22:21.537Z,31.41
2019-02-15T12:23:24.245Z,31.68
2019-02-15T12:24:27.031Z,32.40
2019-02-15T12:25:30.055Z,32.40
2019-02-15T12:26:32.809Z,31.73
2019-02-15T12:27:35.554Z,31.78
2019-02-15T12:28:40.534Z,31.71
2019-02-15T12:29:43.192Z,31.71
2019-02-15T12:30:46.138Z,32.49
2019-02-15T12:31:48.890Z,32.49
2019-02-15T12:32:51.596Z,32.49
2019-02-15T12:33:57.266Z,32.17
2019-02-15T12:35:19.014Z,32.17
2019-02-15T12:36:22.021Z,32.60
2019-02-15T12:37:26.539Z,31.77
2019-02-15T12:38:29.187Z,31.33
2019-02-15T12:39:32.876Z,31.79
2019-02-15T12:40:35.570Z,32.29
2019-02-15T12:41:38.578Z,32.06
2019-02-15T12:42:41.922Z,32.06
2019-02-15T12:43:44.758Z,31.84
2019-02-15T12:44:47.510Z,31.12
2019-02-15T12:45:50.158Z,31.58
2019-02-15T12:46:57.122Z,31.61
2019-02-15T12:48:00.517Z,31.58
2019-02-15T12:49:03.186Z,31.84
2019-02-15T12:50:08.337Z,31.71
2019-02-15T12:51:11.389Z,32.30
2019-02-15T12:52:14.220Z,32.30
2019-02-15T12:53:18.397Z,30.92
2019-02-15T12:54:21.685Z,31.60
2019-02-15T12:55:28.479Z,31.73
2019-02-15T12:56:34.473Z,31.73
2019-02-15T12:57:37.133Z,30.95
2019-02-15T12:58:39.830Z,30.76
2019-02-15T12:59:42.640Z,31.27
2019-02-15T13:00:45.780Z,31.29
2019-02-15T13:01:48.530Z,31.63
2019-02-15T13:02:51.194Z,31.63
2019-02-15T13:03:53.865Z,31.47
2019-02-15T13:04:56.740Z,31.90
2019-02-15T13:05:59.406Z,31.90
2019-02-15T13:07:06.940Z,32.47
2019-02-15T13:08:10.567Z,31.22
2019-02-15T13:09:13.369Z,31.31
2019-02-15T13:10:17.604Z,31.31
2019-02-15T13:11:24.806Z,31.36
2019-02-15T13:12:27.746Z,31.29
2019-02-15T13:13:30.901Z,31.29
2019-02-15T13:14:33.575Z,31.59
2019-02-15T13:15:36.401Z,31.43
2019-02-15T13:16:39.237Z,31.47
2019-02-15T13:17:41.904Z,31.32
2019-02-15T13:18:44.745Z,31.40
2019-02-15T13:19:48.222Z,31.17
2019-02-15T13:20:53.475Z,31.17
2019-02-15T13:22:00.926Z,31.06
2019-02-15T13:23:03.643Z,30.90
2019-02-15T13:24:07.617Z,31.21
2019-02-15T13:25:12.759Z,31.21
2019-02-15T13:26:16.234Z,31.73
2019-02-15T13:27:20.989Z,31.34
2019-02-15T13:28:26.092Z,31.50
2019-02-15T13:29:32.745Z,31.35
2019-02-15T13:30:35.943Z,31.43
2019-02-15T13:31:42.417Z,31.53
2019-02-15T13:32:46.245Z,31.31
2019-02-15T13:33:49.163Z,31.60
2019-02-15T13:34:53.344Z,31.60
2019-02-15T13:36:03.511Z,31.17
2019-02-15T13:37:06.672Z,31.73
2019-02-15T13:38:14.717Z,31.73
2019-02-15T13:39:17.748Z,30.92
2019-02-15T13:40:20.545Z,30.92
2019-02-15T13:41:25.558Z,31.48
2019-02-15T13:42:31.202Z,31.47
2019-02-15T13:43:36.919Z,31.99
2019-02-15T13:44:42.063Z,31.89
2019-02-15T13:45:49.450Z,31.89
2019-02-15T13:46:52.726Z,31.38
2019-02-15T13:48:00.228Z,32.02
2019-02-15T13:49:05.080Z,32.02
2019-02-15T13:50:07.972Z,32.16
2019-02-15T13:51:11.346Z,32.49
2019-02-15T13:52:14.361Z,32.04
2019-02-15T13:53:17.248Z,32.04
2019-02-15T13:54:19.904Z,32.38
2019-02-15T13:55:25.739Z,32.38
2019-02-15T13:56:32.477Z,31.73
2019-02-15T13:57:38.188Z,32.64
2019-02-15T13:58:41.759Z,33.03
2019-02-15T13:59:46.786Z,32.59
2019-02-15T14:00:49.677Z,32.59
2019-02-15T14:01:55.208Z,32.76
2019-02-15T14:02:58.233Z,32.58
2019-02-15T14:04:04.537Z,31.78
2019-02-15T14:05:09.605Z,31.78
2019-02-15T14:06:14.130Z,32.23
2019-02-15T14:07:24.053Z,33.11
2019-02-15T14:08:34.545Z,33.05
2019-02-15T14:09:37.427Z,33.11
2019-02-15T14:10:40.720Z,32.84
2019-02-15T14:11:43.522Z,32.92
2019-02-15T14:12:46.785Z,32.01
2019-02-15T14:13:49.439Z,31.97
2019-02-15T14:14:52.413Z,31.97
2019-02-15T14:15:58.292Z,31.62
2019-02-15T14:17:01.626Z,31.42
2019-02-15T14:18:07.531Z,31.97
2019-02-15T14:19:10.323Z,31.82
2019-02-15T14:20:19.005Z,31.44
2019-02-15T14:21:19.430Z,31.34
2019-02-15T14:22:25.383Z,31.59
2019-02-15T14:23:28.796Z,31.59